Auburn, KS (66402)

5:13 AM CST on February 13, 2016 (GMT -0600)
South Pointe Bay Estates | | Change Station
CLOSE
Current Station
Personal Weather Station
Location: Auburn, KS
Elevation: 1096 ft
Nearby Weather Stations

Elev 1096 ft 38.95 °N, 95.80 °W | Updated 10 minutes ago

Overcast
Overcast
20.1 °F
Feels Like 20 °F
N
1.0
Wind Variable Wind from East
Gusts 4.0 mph

Today
High -- | Low -- °F
--% Chance of Precip.
Yesterday
High -- | Low -- °F
Precip. -- in
Pressure 30.61 in
Visibility 10.0 miles
Clouds Mostly Cloudy 7500 ft
Overcast 11000 ft
Windchill 20 °F
Dew Point 9 °F
Humidity 62%
Rainfall 0.00 in
Snow Depth Not available.
7:17 AM 5:58 PM
Waxing Crescent, 29% visible
METAR KFOE 131053Z AUTO 06007KT 10SM BKN075 OVC110 M07/M15 A3057 RMK AO2 SLP364 T10671150
Pressure 30.61 in
Visibility 10.0 miles
Clouds Mostly Cloudy 7500 ft
Overcast 11000 ft
Windchill 20 °F
Dew Point 9 °F
Humidity 62%
Rainfall 0.00 in
Snow Depth Not available.
7:17 AM 5:58 PM
Waxing Crescent, 29% visible
METAR KFOE 131053Z AUTO 06007KT 10SM BKN075 OVC110 M07/M15 A3057 RMK AO2 SLP364 T10671150

10-Day Weather Forecast

Almanac

Astronomy

Feb. 13, 2016 Rise Set
Actual Time
Civil Twilight
Nautical Twilight
Astronomical Twilight
Moon
Length of Visible Light
Length of Day
Tomorrow will be .
, % of the Moon is Illuminated

Today's Extremes

State Highs State Lows

Community

WunderPhotos

Upload Photos

1,892,541 photos uploaded!

WunderBlog® & News

Nearby

Air Quality

  Air Quality AQ Index Pollutant
Not available.

Snow Depth

Station Depth Elevation

Earthquake Activity

City Distance Mag. Time & Date
Minimum magnitude displayed is 2.5.

Coastal Water Temperatures

Place Temperature

Stations

Nearby Weather Stations

Station Location Temp. Windchill Dew Point Humidity Wind Precip. Elev Updated Type
                   

Watches & Warnings

There are currently no watches in effect.